Leblanc, Louisiana
Current Conditions -  °F | °C
As of 4:55 PM on Friday 28 Nov 2014 (Local Time) from KACP Reporting Station
Clear Clear  
Wind Chill: 58°   Ceiling: Unl
Heat Index: 58°   Visibility: 10mi
Dew Point: 49°   Wind: 0mph
Humidity: 71%   Direction: NA
Pressure: 30.23"   Gusts: NA
Location:  30.51°N, 92.94°W
Report Text: KACP 282255Z AUTO 00000KT 10SM CLR 15/09 A3023 RMK AO2 T01450092
Loading
Personal Weather Stations






























Interactive Weather Map New forecast layout! Learn more

10-Day Weather Forecast

Advertisements
Track Severe Weather on mobile